createdAt,value
2023-04-02T00:02:21.383Z,100427.03
2023-04-02T00:05:30.690Z,100438.91
2023-04-02T00:08:10.536Z,100437.28
2023-04-02T00:10:48.648Z,100448.84
2023-04-02T00:13:15.643Z,100450.47
2023-04-02T00:15:44.905Z,100460.41
2023-04-02T00:18:25.318Z,100463.81
2023-04-02T00:21:12.132Z,100460.31
2023-04-02T00:23:44.006Z,100468.03
2023-04-02T00:26:31.461Z,100471.59
2023-04-02T00:29:00.511Z,100482.53
2023-04-02T00:31:27.532Z,100472.53
2023-04-02T00:33:54.495Z,100488.06
2023-04-02T00:36:22.497Z,100500.34
2023-04-02T00:38:49.370Z,100501.63
2023-04-02T00:41:25.192Z,100503.22
2023-04-02T00:43:52.249Z,100507.53
2023-04-02T00:46:24.429Z,100507.53
2023-04-02T00:48:56.667Z,100518.53
2023-04-02T00:51:31.261Z,100515.78
2023-04-02T00:54:02.096Z,100519.13
2023-04-02T00:56:32.752Z,100529.94
2023-04-02T00:58:59.615Z,100523.25
2023-04-02T01:01:29.627Z,100535.81
2023-04-02T01:04:01.419Z,100535.28
2023-04-02T01:06:34.482Z,100534.56
2023-04-02T01:09:13.270Z,100534.81
2023-04-02T01:12:00.218Z,100542.16
2023-04-02T01:14:41.443Z,100547.63
2023-04-02T01:17:28.589Z,100549.16
2023-04-02T01:20:25.582Z,100554.75
2023-04-02T01:23:06.234Z,100557.84
2023-04-02T01:25:38.954Z,100559.19
2023-04-02T01:28:19.902Z,100563.50
2023-04-02T01:30:52.337Z,100577.25
2023-04-02T01:33:22.207Z,100590.22
2023-04-02T01:35:55.837Z,100594.28
2023-04-02T01:38:46.746Z,100593.72
2023-04-02T01:41:29.927Z,100602.25
2023-04-02T01:44:03.714Z,100597.66
2023-04-02T01:46:35.645Z,100601.63
2023-04-02T01:49:10.663Z,100606.28
2023-04-02T01:51:43.158Z,100614.63
2023-04-02T01:54:11.406Z,100608.69
2023-04-02T01:56:38.393Z,100620.72
2023-04-02T01:59:06.173Z,100615.75
2023-04-02T02:01:54.651Z,100625.66
2023-04-02T02:04:22.000Z,100630.66
2023-04-02T02:06:49.507Z,100645.94
2023-04-02T02:09:22.148Z,100651.47
2023-04-02T02:11:49.689Z,100647.06
2023-04-02T02:14:19.329Z,100653.41
2023-04-02T02:16:46.969Z,100658.31
2023-04-02T02:19:22.848Z,100674.31
2023-04-02T02:21:54.411Z,100662.75
2023-04-02T02:24:31.881Z,100673.28
2023-04-02T02:27:23.021Z,100679.16
2023-04-02T02:29:53.021Z,100684.41
2023-04-02T02:32:21.304Z,100688.69
2023-04-02T02:35:08.273Z,100695.53
2023-04-02T02:37:41.438Z,100704.38
2023-04-02T02:40:22.073Z,100701.59
2023-04-02T02:42:51.762Z,100705.50
2023-04-02T02:45:21.651Z,100713.63
2023-04-02T02:47:49.093Z,100723.84
2023-04-02T02:50:31.909Z,100722.28
2023-04-02T02:53:00.609Z,100720.94
2023-04-02T02:55:32.999Z,100724.19
2023-04-02T02:58:04.800Z,100727.34
2023-04-02T03:00:32.232Z,100737.31
2023-04-02T03:02:59.300Z,100732.69
2023-04-02T03:05:28.028Z,100753.19
2023-04-02T03:07:56.570Z,100743.72
2023-04-02T03:10:27.679Z,100756.69
2023-04-02T03:13:26.365Z,100764.34
2023-04-02T03:16:04.140Z,100766.00
2023-04-02T03:18:59.455Z,100774.44
2023-04-02T03:21:33.152Z,100780.09
2023-04-02T03:24:01.704Z,100781.75
2023-04-02T03:26:40.339Z,100802.97
2023-04-02T03:29:15.698Z,100792.41
2023-04-02T03:31:48.255Z,100805.75
2023-04-02T03:34:25.748Z,100814.78
2023-04-02T03:37:07.543Z,100817.22
2023-04-02T03:39:47.100Z,100817.13
2023-04-02T03:42:26.358Z,100832.94
2023-04-02T03:44:57.533Z,100835.56
2023-04-02T03:47:27.406Z,100841.56
2023-04-02T03:50:17.218Z,100844.91
2023-04-02T03:52:44.108Z,100853.88
2023-04-02T03:55:23.495Z,100853.56
2023-04-02T03:58:00.583Z,100867.66
2023-04-02T04:00:33.755Z,100868.25
2023-04-02T04:03:08.380Z,100879.34
2023-04-02T04:05:38.082Z,100879.34
2023-04-02T04:08:14.551Z,100882.00
2023-04-02T04:10:42.837Z,100894.13
2023-04-02T04:13:14.242Z,100897.06
2023-04-02T04:15:47.818Z,100914.41
2023-04-02T04:18:52.780Z,100915.84
2023-04-02T04:21:37.303Z,100918.22
2023-04-02T04:24:14.081Z,100927.22
2023-04-02T04:27:17.350Z,100923.81
2023-04-02T04:29:55.135Z,100940.41
2023-04-02T04:32:32.456Z,100949.06
2023-04-02T04:35:19.847Z,100944.72
2023-04-02T04:37:50.012Z,100955.72
2023-04-02T04:40:21.533Z,100959.56
2023-04-02T04:42:49.009Z,100962.69
2023-04-02T04:45:21.745Z,100965.34
2023-04-02T04:47:54.146Z,100973.94
2023-04-02T04:50:42.061Z,100985.03
2023-04-02T04:53:16.317Z,101001.22
2023-04-02T04:55:48.645Z,101000.97
2023-04-02T04:58:28.255Z,101011.25
2023-04-02T05:01:07.725Z,101014.72
2023-04-02T05:04:25.274Z,101022.56
2023-04-02T05:06:53.362Z,101027.94
2023-04-02T05:09:24.947Z,101021.75
2023-04-02T05:12:31.329Z,101034.00
2023-04-02T05:15:02.412Z,101034.19
2023-04-02T05:17:50.996Z,101040.78
2023-04-02T05:20:23.500Z,101053.38
2023-04-02T05:22:55.037Z,101057.94
2023-04-02T05:25:33.003Z,101070.72
2023-04-02T05:28:05.971Z,101081.47
2023-04-02T05:30:46.834Z,101078.41
2023-04-02T05:33:24.584Z,101082.66
2023-04-02T05:35:56.194Z,101086.47
2023-04-02T05:38:26.293Z,101096.06
2023-04-02T05:41:04.745Z,101106.53
2023-04-02T05:43:34.557Z,101110.31
2023-04-02T05:46:05.882Z,101104.94
2023-04-02T05:48:40.873Z,101113.97
2023-04-02T05:51:10.168Z,101113.97
2023-04-02T05:54:00.031Z,101133.22
2023-04-02T05:56:43.471Z,101127.00
2023-04-02T05:59:23.480Z,101134.91
2023-04-02T06:02:11.598Z,101136.84
2023-04-02T06:04:55.833Z,101152.72
2023-04-02T06:07:40.565Z,101154.00
2023-04-02T06:10:11.088Z,101166.34
2023-04-02T06:13:05.741Z,101156.47
2023-04-02T06:15:34.088Z,101172.09
2023-04-02T06:18:06.939Z,101188.16
2023-04-02T06:20:34.199Z,101182.03
2023-04-02T06:23:05.135Z,101191.28
2023-04-02T06:25:35.866Z,101196.00
2023-04-02T06:28:05.847Z,101207.38
2023-04-02T06:30:35.358Z,101203.81
2023-04-02T06:33:02.143Z,101217.91
2023-04-02T06:35:28.887Z,101218.00
2023-04-02T06:37:57.910Z,101222.28
2023-04-02T06:40:33.836Z,101233.19
2023-04-02T06:43:08.406Z,101237.00
2023-04-02T06:45:40.122Z,101246.50
2023-04-02T06:48:20.190Z,101246.16
2023-04-02T06:51:03.732Z,101252.47
2023-04-02T06:53:53.595Z,101256.16
2023-04-02T06:56:49.235Z,101264.78
2023-04-02T06:59:16.802Z,101275.25
2023-04-02T07:01:57.533Z,101270.09
2023-04-02T07:04:24.549Z,101278.59
2023-04-02T07:06:51.515Z,101280.03
2023-04-02T07:09:19.107Z,101284.31
2023-04-02T07:11:51.224Z,101288.81
2023-04-02T07:14:17.936Z,101299.28
2023-04-02T07:16:44.804Z,101302.66
2023-04-02T07:19:21.984Z,101308.53
2023-04-02T07:21:49.379Z,101316.19
2023-04-02T07:24:16.202Z,101324.03
2023-04-02T07:26:43.146Z,101322.19
2023-04-02T07:29:14.975Z,101321.09
2023-04-02T07:31:42.064Z,101345.00
2023-04-02T07:34:09.627Z,101343.84
2023-04-02T07:36:36.609Z,101349.53
2023-04-02T07:39:04.155Z,101350.31
2023-04-02T07:41:30.866Z,101355.41
2023-04-02T07:43:57.627Z,101371.03
2023-04-02T07:46:24.765Z,101368.25
2023-04-02T07:48:51.535Z,101370.34
2023-04-02T07:51:23.779Z,101376.91
2023-04-02T07:53:55.958Z,101388.25
2023-04-02T07:56:24.599Z,101392.63
2023-04-02T07:58:51.704Z,101401.25
2023-04-02T08:01:19.655Z,101404.59
2023-04-02T08:03:47.212Z,101409.56
2023-04-02T08:06:14.051Z,101413.06
2023-04-02T08:08:40.922Z,101408.91
2023-04-02T08:11:07.787Z,101409.03
2023-04-02T08:13:34.724Z,101419.41
2023-04-02T08:16:02.436Z,101425.50
2023-04-02T08:18:30.624Z,101425.31
2023-04-02T08:20:58.177Z,101420.56
2023-04-02T08:23:25.627Z,101434.66
2023-04-02T08:25:53.025Z,101443.09
2023-04-02T08:28:21.419Z,101451.63
2023-04-02T08:30:51.708Z,101456.00
2023-04-02T08:33:19.159Z,101465.38
2023-04-02T08:35:49.856Z,101467.19
2023-04-02T08:38:21.800Z,101467.00
2023-04-02T08:40:53.664Z,101473.25
2023-04-02T08:43:39.179Z,101481.06
2023-04-02T08:46:18.801Z,101487.16
2023-04-02T08:48:55.628Z,101487.91
2023-04-02T08:51:34.872Z,101489.38
2023-04-02T08:54:28.025Z,101502.94
2023-04-02T08:57:40.271Z,101498.41
2023-04-02T09:00:24.562Z,101498.03
2023-04-02T09:02:56.995Z,101516.91
2023-04-02T09:05:29.159Z,101527.00
2023-04-02T09:07:59.315Z,101525.78
2023-04-02T09:10:36.154Z,101530.84
2023-04-02T09:13:03.218Z,101535.94
2023-04-02T09:15:34.528Z,101539.72
2023-04-02T09:18:13.771Z,101545.53
2023-04-02T09:20:41.026Z,101539.59
2023-04-02T09:23:16.416Z,101557.78
2023-04-02T09:26:03.031Z,101553.25
2023-04-02T09:28:31.405Z,101563.63
2023-04-02T09:31:19.978Z,101557.63
2023-04-02T09:33:49.230Z,101573.41
2023-04-02T09:36:20.875Z,101572.31
2023-04-02T09:38:59.198Z,101580.03
2023-04-02T09:41:29.388Z,101585.66
2023-04-02T09:44:14.560Z,101581.06
2023-04-02T09:46:54.100Z,101586.22
2023-04-02T09:49:26.619Z,101606.13
2023-04-02T09:52:12.913Z,101603.69
2023-04-02T09:54:41.821Z,101603.59
2023-04-02T09:57:38.928Z,101609.59
2023-04-02T10:00:41.741Z,101607.56
2023-04-02T10:03:29.546Z,101616.06
2023-04-02T10:06:14.414Z,101621.22
2023-04-02T10:08:45.721Z,101625.50
2023-04-02T10:11:46.274Z,101627.69
2023-04-02T10:14:21.965Z,101632.84
2023-04-02T10:16:54.406Z,101635.84
2023-04-02T10:19:42.229Z,101643.06
2023-04-02T10:22:32.408Z,101649.00
2023-04-02T10:24:59.476Z,101655.47
2023-04-02T10:27:52.254Z,101658.88
2023-04-02T10:30:27.440Z,101659.34
2023-04-02T10:33:01.335Z,101659.94
2023-04-02T10:35:48.450Z,101678.97
2023-04-02T10:38:31.291Z,101677.63
2023-04-02T10:41:01.725Z,101690.53
2023-04-02T10:43:37.541Z,101686.81
2023-04-02T10:46:33.194Z,101705.41
2023-04-02T10:49:52.239Z,101710.00
2023-04-02T10:52:22.252Z,101718.50
2023-04-02T10:54:51.049Z,101717.81
2023-04-02T10:57:42.270Z,101724.63
2023-04-02T11:00:12.710Z,101727.22
2023-04-02T11:02:58.712Z,101740.88
2023-04-02T11:05:44.289Z,101750.13
2023-04-02T11:08:26.177Z,101745.03
2023-04-02T11:10:58.567Z,101761.41
2023-04-02T11:13:41.787Z,101759.56
2023-04-02T11:16:08.592Z,101768.56
2023-04-02T11:18:38.946Z,101765.56
2023-04-02T11:21:27.388Z,101762.78
2023-04-02T11:24:01.045Z,101763.72
2023-04-02T11:26:31.769Z,101765.47
2023-04-02T11:29:29.050Z,101769.25
2023-04-02T11:32:20.852Z,101767.50
2023-04-02T11:34:53.806Z,101772.66
2023-04-02T11:37:45.168Z,101774.53
2023-04-02T11:40:12.014Z,101776.66
2023-04-02T11:42:42.652Z,101781.84
2023-04-02T11:45:21.808Z,101787.13
2023-04-02T11:48:06.192Z,101781.66
2023-04-02T11:50:34.643Z,101788.78
2023-04-02T11:53:05.579Z,101787.78
2023-04-02T11:55:33.957Z,101799.25
2023-04-02T11:58:09.775Z,101799.88
2023-04-02T12:01:00.933Z,101794.84
2023-04-02T12:03:58.784Z,101802.72
2023-04-02T12:06:47.192Z,101800.84
2023-04-02T12:09:23.663Z,101805.25
2023-04-02T12:11:52.251Z,101803.97
2023-04-02T12:14:33.182Z,101811.84
2023-04-02T12:17:00.039Z,101818.22
2023-04-02T12:19:27.529Z,101828.50
2023-04-02T12:21:54.635Z,101827.25
2023-04-02T12:24:23.483Z,101834.97
2023-04-02T12:27:28.020Z,101836.34
2023-04-02T12:29:56.256Z,101846.06
2023-04-02T12:32:30.919Z,101860.56
2023-04-02T12:34:58.533Z,101845.66
2023-04-02T12:37:29.505Z,101860.00
2023-04-02T12:39:56.510Z,101851.13
2023-04-02T12:42:41.513Z,101857.97
2023-04-02T12:45:22.841Z,101860.19
2023-04-02T12:47:49.636Z,101867.06
2023-04-02T12:50:26.759Z,101861.50
2023-04-02T12:52:55.259Z,101860.47
2023-04-02T12:55:29.757Z,101874.03
2023-04-02T12:57:58.013Z,101864.25
2023-04-02T13:00:29.692Z,101858.75
2023-04-02T13:03:23.336Z,101870.50
2023-04-02T13:05:52.837Z,101883.38
2023-04-02T13:08:26.517Z,101876.50
2023-04-02T13:10:55.806Z,101878.00
2023-04-02T13:13:30.327Z,101885.88
2023-04-02T13:16:06.215Z,101878.06
2023-04-02T13:18:34.844Z,101892.84
2023-04-02T13:21:03.756Z,101887.41
2023-04-02T13:23:30.566Z,101889.75
2023-04-02T13:25:57.779Z,101905.16
2023-04-02T13:28:24.717Z,101898.50
2023-04-02T13:30:51.626Z,101899.97
2023-04-02T13:33:18.634Z,101898.00
2023-04-02T13:35:45.689Z,101897.53
2023-04-02T13:38:12.705Z,101892.22
2023-04-02T13:40:39.542Z,101901.75
2023-04-02T13:43:07.706Z,101894.72
2023-04-02T13:45:37.089Z,101901.84
2023-04-02T13:48:04.602Z,101907.94
2023-04-02T13:50:33.277Z,101914.72
2023-04-02T13:53:07.200Z,101922.41
2023-04-02T13:55:38.113Z,101925.09
2023-04-02T13:58:05.559Z,101924.75
2023-04-02T14:00:32.665Z,101928.50
2023-04-02T14:03:03.989Z,101928.59
2023-04-02T14:05:30.757Z,101930.22
2023-04-02T14:07:57.457Z,101923.00
2023-04-02T14:11:09.566Z,101927.31
2023-04-02T14:13:55.108Z,101924.88
2023-04-02T14:16:59.283Z,101932.00
2023-04-02T14:19:41.646Z,101924.38
2023-04-02T14:22:11.427Z,101927.91
2023-04-02T14:24:56.364Z,101925.47
2023-04-02T14:27:36.331Z,101921.09
2023-04-02T14:30:26.677Z,101912.59
2023-04-02T14:32:59.495Z,101922.50
2023-04-02T14:35:34.641Z,101923.72
2023-04-02T14:38:14.274Z,101925.44
2023-04-02T14:41:00.242Z,101931.53
2023-04-02T14:43:40.153Z,101930.19
2023-04-02T14:46:08.838Z,101939.56
2023-04-02T14:48:43.928Z,101936.38
2023-04-02T14:51:16.387Z,101938.75
2023-04-02T14:53:51.711Z,101947.09
2023-04-02T14:56:20.242Z,101943.69
2023-04-02T14:58:53.694Z,101949.41
2023-04-02T15:01:28.294Z,101947.59
2023-04-02T15:04:04.678Z,101947.53
2023-04-02T15:06:36.284Z,101953.50
2023-04-02T15:09:09.372Z,101961.78
2023-04-02T15:11:38.700Z,101970.06
2023-04-02T15:14:25.872Z,101967.69
2023-04-02T15:16:52.583Z,101964.97
2023-04-02T15:19:19.811Z,101961.41
2023-04-02T15:22:14.651Z,101963.38
2023-04-02T15:25:09.130Z,101960.34
2023-04-02T15:28:01.393Z,101972.97
2023-04-02T15:30:33.297Z,101979.41
2023-04-02T15:33:38.022Z,101971.53
2023-04-02T15:36:34.183Z,101974.28
2023-04-02T15:39:28.319Z,101970.41
2023-04-02T15:42:04.287Z,101981.28
2023-04-02T15:44:31.106Z,101984.84
2023-04-02T15:47:06.784Z,101995.91
2023-04-02T15:49:55.305Z,101988.00
2023-04-02T15:52:24.894Z,101984.44
2023-04-02T15:55:19.324Z,101991.63
2023-04-02T15:57:54.774Z,101987.97
2023-04-02T16:00:26.937Z,102001.72
2023-04-02T16:03:27.978Z,101995.25
2023-04-02T16:06:03.761Z,102005.28
2023-04-02T16:08:39.454Z,102016.63
2023-04-02T16:11:11.392Z,102017.50
2023-04-02T16:13:39.779Z,102021.47
2023-04-02T16:16:06.601Z,102019.81
2023-04-02T16:18:38.640Z,102017.41
2023-04-02T16:21:06.738Z,102028.22
2023-04-02T16:23:38.507Z,102024.88
2023-04-02T16:26:26.870Z,102026.72
2023-04-02T16:29:14.876Z,102026.44
2023-04-02T16:31:57.565Z,102033.25
2023-04-02T16:35:23.916Z,102042.78
2023-04-02T16:38:00.967Z,102035.22
2023-04-02T16:41:06.983Z,102055.88
2023-04-02T16:44:02.817Z,102049.38
2023-04-02T16:47:12.191Z,102057.50
2023-04-02T16:49:41.762Z,102074.47
2023-04-02T16:52:13.891Z,102067.31
2023-04-02T16:54:47.380Z,102077.06
2023-04-02T16:57:20.753Z,102089.53
2023-04-02T16:59:50.533Z,102087.31
2023-04-02T17:02:55.221Z,102095.75
2023-04-02T17:05:32.609Z,102095.66
2023-04-02T17:08:16.061Z,102108.41
2023-04-02T17:10:51.863Z,102116.25
2023-04-02T17:13:21.717Z,102117.50
2023-04-02T17:16:28.986Z,102121.22
2023-04-02T17:18:58.173Z,102133.81
2023-04-02T17:21:27.485Z,102125.97
2023-04-02T17:24:02.231Z,102138.75
2023-04-02T17:26:31.635Z,102131.88
2023-04-02T17:29:01.671Z,102137.69
2023-04-02T17:31:34.295Z,102138.97
2023-04-02T17:34:11.160Z,102152.13
2023-04-02T17:36:43.322Z,102151.59
2023-04-02T17:39:21.615Z,102149.31
2023-04-02T17:42:13.224Z,102146.06
2023-04-02T17:45:01.618Z,102156.97
2023-04-02T17:47:35.231Z,102162.44
2023-04-02T17:50:29.939Z,102166.28
2023-04-02T17:52:58.438Z,102167.19
2023-04-02T17:55:50.110Z,102182.94
2023-04-02T17:58:52.304Z,102173.50
2023-04-02T18:01:29.219Z,102177.81
2023-04-02T18:04:05.115Z,102184.09
2023-04-02T18:06:50.682Z,102185.19
2023-04-02T18:09:35.882Z,102188.81
2023-04-02T18:12:17.824Z,102192.75
2023-04-02T18:15:17.005Z,102198.00
2023-04-02T18:17:59.276Z,102201.53
2023-04-02T18:20:32.375Z,102201.56
2023-04-02T18:23:12.550Z,102201.78
2023-04-02T18:26:01.757Z,102204.41
2023-04-02T18:28:34.469Z,102208.97
2023-04-02T18:31:08.405Z,102221.38
2023-04-02T18:33:56.189Z,102227.31
2023-04-02T18:36:44.718Z,102228.31
2023-04-02T18:39:32.948Z,102219.47
2023-04-02T18:42:12.073Z,102230.06
2023-04-02T18:44:45.646Z,102236.44
2023-04-02T18:47:25.676Z,102227.78
2023-04-02T18:50:04.667Z,102227.16
2023-04-02T18:52:31.483Z,102235.75
2023-04-02T18:55:06.397Z,102244.53
2023-04-02T18:57:34.287Z,102249.22
2023-04-02T19:00:06.460Z,102257.28
2023-04-02T19:02:53.748Z,102263.41
2023-04-02T19:05:33.148Z,102263.56
2023-04-02T19:08:19.224Z,102268.91
2023-04-02T19:10:48.882Z,102273.31
2023-04-02T19:13:23.285Z,102278.69
2023-04-02T19:15:56.076Z,102274.41
2023-04-02T19:18:22.752Z,102284.16
2023-04-02T19:21:02.814Z,102281.72
2023-04-02T19:23:42.209Z,102289.69
2023-04-02T19:26:13.032Z,102288.88
2023-04-02T19:28:58.131Z,102296.06
2023-04-02T19:31:35.804Z,102297.06
2023-04-02T19:34:12.370Z,102297.84
2023-04-02T19:36:59.094Z,102298.91
2023-04-02T19:39:47.033Z,102300.75
2023-04-02T19:42:40.158Z,102305.28
2023-04-02T19:45:18.306Z,102311.56
2023-04-02T19:47:45.087Z,102314.13
2023-04-02T19:50:11.802Z,102318.69
2023-04-02T19:52:38.530Z,102312.31
2023-04-02T19:55:05.591Z,102321.25
2023-04-02T19:57:32.969Z,102315.97
2023-04-02T19:59:59.804Z,102324.06
2023-04-02T20:02:26.610Z,102328.56
2023-04-02T20:04:53.487Z,102327.66
2023-04-02T20:07:20.312Z,102325.22
2023-04-02T20:09:47.070Z,102336.78
2023-04-02T20:12:14.020Z,102332.31
2023-04-02T20:14:40.761Z,102336.59
2023-04-02T20:17:07.641Z,102338.53
2023-04-02T20:19:34.503Z,102336.59
2023-04-02T20:22:01.241Z,102338.69
2023-04-02T20:24:27.956Z,102346.47
2023-04-02T20:26:54.645Z,102344.72
2023-04-02T20:29:23.100Z,102344.03
2023-04-02T20:31:49.776Z,102346.81
2023-04-02T20:34:16.806Z,102358.19
2023-04-02T20:36:44.633Z,102355.72
2023-04-02T20:39:12.232Z,102351.53
2023-04-02T20:41:38.927Z,102355.78
2023-04-02T20:44:05.724Z,102368.69
2023-04-02T20:46:32.713Z,102362.56
2023-04-02T20:48:59.503Z,102368.97
2023-04-02T20:51:26.285Z,102367.28
2023-04-02T20:53:53.970Z,102372.78
2023-04-02T20:56:22.521Z,102376.31
2023-04-02T20:58:49.833Z,102378.75
2023-04-02T21:01:21.100Z,102381.50
2023-04-02T21:03:55.680Z,102382.28
2023-04-02T21:06:24.623Z,102388.72
2023-04-02T21:08:52.107Z,102390.50
2023-04-02T21:11:19.954Z,102393.91
2023-04-02T21:13:46.754Z,102402.91
2023-04-02T21:16:15.233Z,102407.53
2023-04-02T21:18:42.447Z,102404.00
2023-04-02T21:21:13.490Z,102409.94
2023-04-02T21:23:41.504Z,102410.69
2023-04-02T21:26:10.485Z,102401.00
2023-04-02T21:28:37.180Z,102407.38
2023-04-02T21:31:37.362Z,102412.56
2023-04-02T21:34:05.230Z,102413.50
2023-04-02T21:36:35.410Z,102418.97
2023-04-02T21:39:20.102Z,102412.72
2023-04-02T21:41:50.162Z,102406.03
2023-04-02T21:44:20.843Z,102401.56
2023-04-02T21:46:49.350Z,102413.16
2023-04-02T21:49:19.893Z,102408.91
2023-04-02T21:51:47.393Z,102422.09
2023-04-02T21:54:14.540Z,102419.44
2023-04-02T21:56:43.506Z,102422.00
2023-04-02T21:59:11.548Z,102417.63
2023-04-02T22:01:43.746Z,102414.13
2023-04-02T22:04:16.674Z,102423.84
2023-04-02T22:06:43.962Z,102426.69
2023-04-02T22:09:14.219Z,102425.75
2023-04-02T22:11:44.239Z,102426.53
2023-04-02T22:14:11.625Z,102424.88
2023-04-02T22:16:38.834Z,102430.13
2023-04-02T22:19:08.602Z,102427.34
2023-04-02T22:21:36.356Z,102429.03
2023-04-02T22:24:04.615Z,102430.00
2023-04-02T22:26:32.804Z,102438.84
2023-04-02T22:29:00.521Z,102438.97
2023-04-02T22:31:30.479Z,102440.75
2023-04-02T22:33:58.284Z,102439.94
2023-04-02T22:36:26.703Z,102440.00
2023-04-02T22:38:53.694Z,102441.66
2023-04-02T22:41:22.789Z,102449.81
2023-04-02T22:43:49.728Z,102452.50
2023-04-02T22:46:17.800Z,102447.34
2023-04-02T22:48:45.539Z,102451.59
2023-04-02T22:51:14.461Z,102454.19
2023-04-02T22:53:41.886Z,102452.44
2023-04-02T22:56:20.306Z,102452.47
2023-04-02T22:58:47.108Z,102455.84
2023-04-02T23:01:17.317Z,102456.72
2023-04-02T23:03:44.470Z,102459.34
2023-04-02T23:06:12.922Z,102465.63
2023-04-02T23:08:39.904Z,102465.66
2023-04-02T23:11:15.143Z,102465.72
2023-04-02T23:13:43.751Z,102458.69
2023-04-02T23:16:13.149Z,102469.16
2023-04-02T23:18:40.721Z,102466.56
2023-04-02T23:21:07.717Z,102466.69
2023-04-02T23:23:35.245Z,102458.78
2023-04-02T23:26:08.024Z,102460.63
2023-04-02T23:28:36.131Z,102465.81
2023-04-02T23:31:04.629Z,102464.13
2023-04-02T23:33:31.368Z,102474.75
2023-04-02T23:35:58.789Z,102467.63
2023-04-02T23:38:25.982Z,102473.03
2023-04-02T23:40:53.768Z,102473.06
2023-04-02T23:43:20.662Z,102476.53
2023-04-02T23:45:50.730Z,102475.66
2023-04-02T23:48:17.744Z,102476.53
2023-04-02T23:50:45.588Z,102479.13
2023-04-02T23:53:12.736Z,102476.53
2023-04-02T23:55:39.543Z,102481.84
2023-04-02T23:58:06.399Z,102484.50
